Flugplatz Oberpfaffenhofen

Bericht für EDMO

vom 28.09. um 22:20 UTC

variable Windrichtung mit 1 kt

Sichtweite 10 km oder mehr

bedeckt in 1200 ft

Temperatur 13.0°C

Taupunkt 12.0°C

Luftfeuchtigkeit 94%

Luftdruck 1019 hPa

EDMO 282220Z AUTO VRB01KT 9999 // OVC012/// 13/12 Q1019

Prognose für EDMO

vom 28.09. um 17:00 UTC

Am 28.09. zwischen 18:00 UTC und 20:00 UTC

Wind 5 kt aus 60°

Sichtweite 10 km oder mehr

aufgebrochene Bewölkung in 2000 ft


Am 28.09. zwischen 20:00 und 22:00 UTC übergehend zu

variable Windrichtung mit 3 kt

Sichtweite 10 km oder mehr

aufgebrochene Bewölkung in 1200 ft


Zwischen 00:00 und 02:00 UTC übergehend zu

Wind 6 kt aus 240°

Sichtweite 10 km oder mehr

aufgebrochene Bewölkung in 1200 ft


Zwischen 00:00 UTC und 03:00 UTC zeitweise mit einer Wahrscheinlichkeit von 40%

Sichtweite 4000 m

Regenschauer

aufgebrochene Bewölkung in 900 ft

aufgebrochene Bewölkung in 2000 ft

TAF EDMO 281700Z 2818/2903 06005KT 9999 BKN020 BECMG 2820/2822 VRB03KT BKN012 BECMG 2900/2902 24006KT PROB40 TEMPO 2900/2903 4000 SHRA BKN009 BKN020TCU
Impressum